sensor_id;sensor_type;location;lat;lon;timestamp;P1;durP1;ratioP1;P2;durP2;ratioP2
71800;SDS011;59647;55.838;37.292;2022-07-09T00:02:05;8.30;;;3.58;;
71800;SDS011;59647;55.838;37.292;2022-07-09T00:04:31;6.90;;;3.88;;
71800;SDS011;59647;55.838;37.292;2022-07-09T00:06:56;7.90;;;3.65;;
71800;SDS011;59647;55.838;37.292;2022-07-09T00:09:24;6.63;;;3.53;;
71800;SDS011;59647;55.838;37.292;2022-07-09T00:11:49;5.47;;;3.70;;
71800;SDS011;59647;55.838;37.292;2022-07-09T00:14:17;6.22;;;3.60;;
71800;SDS011;59647;55.838;37.292;2022-07-09T00:16:43;9.93;;;3.78;;
71800;SDS011;59647;55.838;37.292;2022-07-09T00:19:09;9.73;;;4.13;;
71800;SDS011;59647;55.838;37.292;2022-07-09T00:21:35;11.88;;;4.13;;
71800;SDS011;59647;55.838;37.292;2022-07-09T00:24:01;10.68;;;3.83;;
71800;SDS011;59647;55.838;37.292;2022-07-09T00:26:27;7.40;;;4.18;;
71800;SDS011;59647;55.838;37.292;2022-07-09T00:28:53;12.35;;;3.47;;
71800;SDS011;59647;55.838;37.292;2022-07-09T00:31:19;6.55;;;3.30;;
71800;SDS011;59647;55.838;37.292;2022-07-09T00:33:44;5.97;;;4.10;;
71800;SDS011;59647;55.838;37.292;2022-07-09T00:36:10;8.90;;;3.88;;
71800;SDS011;59647;55.838;37.292;2022-07-09T00:38:36;5.40;;;3.50;;
71800;SDS011;59647;55.838;37.292;2022-07-09T00:41:02;17.73;;;6.03;;
71800;SDS011;59647;55.838;37.292;2022-07-09T00:43:27;11.55;;;4.72;;
71800;SDS011;59647;55.838;37.292;2022-07-09T00:45:53;15.30;;;5.57;;
71800;SDS011;59647;55.838;37.292;2022-07-09T00:48:19;11.60;;;4.50;;
71800;SDS011;59647;55.838;37.292;2022-07-09T00:50:45;19.20;;;4.97;;
71800;SDS011;59647;55.838;37.292;2022-07-09T00:53:12;8.77;;;4.55;;
71800;SDS011;59647;55.838;37.292;2022-07-09T00:55:40;5.65;;;3.58;;
71800;SDS011;59647;55.838;37.292;2022-07-09T00:58:06;9.93;;;4.03;;
71800;SDS011;59647;55.838;37.292;2022-07-09T01:00:34;9.50;;;4.32;;
71800;SDS011;59647;55.838;37.292;2022-07-09T01:03:00;10.77;;;3.83;;
71800;SDS011;59647;55.838;37.292;2022-07-09T01:05:26;6.13;;;3.65;;
71800;SDS011;59647;55.838;37.292;2022-07-09T01:07:52;11.45;;;4.05;;
71800;SDS011;59647;55.838;37.292;2022-07-09T01:10:18;19.13;;;6.10;;
71800;SDS011;59647;55.838;37.292;2022-07-09T01:12:44;10.38;;;3.70;;
71800;SDS011;59647;55.838;37.292;2022-07-09T01:15:10;8.57;;;5.00;;
71800;SDS011;59647;55.838;37.292;2022-07-09T01:17:39;7.53;;;3.25;;
71800;SDS011;59647;55.838;37.292;2022-07-09T01:20:06;7.60;;;4.00;;
71800;SDS011;59647;55.838;37.292;2022-07-09T01:22:34;7.22;;;4.43;;
71800;SDS011;59647;55.838;37.292;2022-07-09T01:25:01;11.18;;;4.57;;
71800;SDS011;59647;55.838;37.292;2022-07-09T01:27:30;9.70;;;4.72;;
71800;SDS011;59647;55.838;37.292;2022-07-09T01:29:56;12.35;;;4.00;;
71800;SDS011;59647;55.838;37.292;2022-07-09T01:32:21;10.40;;;5.13;;
71800;SDS011;59647;55.838;37.292;2022-07-09T01:34:47;11.80;;;5.05;;
71800;SDS011;59647;55.838;37.292;2022-07-09T01:37:13;24.63;;;5.40;;
71800;SDS011;59647;55.838;37.292;2022-07-09T01:39:39;15.07;;;5.15;;
71800;SDS011;59647;55.838;37.292;2022-07-09T01:42:16;7.82;;;3.67;;
71800;SDS011;59647;55.838;37.292;2022-07-09T01:44:45;6.55;;;3.95;;
71800;SDS011;59647;55.838;37.292;2022-07-09T01:47:11;10.77;;;4.30;;
71800;SDS011;59647;55.838;37.292;2022-07-09T01:49:40;26.88;;;5.78;;
71800;SDS011;59647;55.838;37.292;2022-07-09T01:52:06;17.30;;;4.38;;
71800;SDS011;59647;55.838;37.292;2022-07-09T01:54:33;9.25;;;3.85;;
71800;SDS011;59647;55.838;37.292;2022-07-09T01:56:58;13.15;;;4.50;;
71800;SDS011;59647;55.838;37.292;2022-07-09T01:59:24;11.23;;;4.70;;
71800;SDS011;59647;55.838;37.292;2022-07-09T02:01:50;6.47;;;3.55;;
71800;SDS011;59647;55.838;37.292;2022-07-09T02:04:16;8.20;;;3.60;;
71800;SDS011;59647;55.838;37.292;2022-07-09T02:06:42;7.38;;;3.80;;
71800;SDS011;59647;55.838;37.292;2022-07-09T02:09:07;18.80;;;6.30;;
71800;SDS011;59647;55.838;37.292;2022-07-09T02:11:33;7.38;;;4.10;;
71800;SDS011;59647;55.838;37.292;2022-07-09T02:13:59;7.63;;;3.80;;
71800;SDS011;59647;55.838;37.292;2022-07-09T02:16:25;5.63;;;3.90;;
71800;SDS011;59647;55.838;37.292;2022-07-09T02:18:51;9.85;;;4.20;;
71800;SDS011;59647;55.838;37.292;2022-07-09T02:21:16;12.45;;;4.22;;
71800;SDS011;59647;55.838;37.292;2022-07-09T02:23:42;8.10;;;3.40;;
71800;SDS011;59647;55.838;37.292;2022-07-09T02:26:08;7.10;;;4.45;;
71800;SDS011;59647;55.838;37.292;2022-07-09T02:28:34;10.38;;;4.00;;
71800;SDS011;59647;55.838;37.292;2022-07-09T02:31:00;9.45;;;3.90;;
71800;SDS011;59647;55.838;37.292;2022-07-09T02:33:26;9.27;;;4.63;;
71800;SDS011;59647;55.838;37.292;2022-07-09T02:35:51;14.75;;;4.38;;
71800;SDS011;59647;55.838;37.292;2022-07-09T02:38:17;10.80;;;4.28;;
71800;SDS011;59647;55.838;37.292;2022-07-09T02:40:43;9.50;;;4.13;;
71800;SDS011;59647;55.838;37.292;2022-07-09T02:43:09;12.10;;;3.95;;
71800;SDS011;59647;55.838;37.292;2022-07-09T02:45:34;8.20;;;4.20;;
71800;SDS011;59647;55.838;37.292;2022-07-09T02:48:00;10.77;;;3.95;;
71800;SDS011;59647;55.838;37.292;2022-07-09T02:50:26;6.72;;;3.63;;
71800;SDS011;59647;55.838;37.292;2022-07-09T02:52:52;12.00;;;4.53;;
71800;SDS011;59647;55.838;37.292;2022-07-09T02:55:18;13.00;;;4.15;;
71800;SDS011;59647;55.838;37.292;2022-07-09T02:57:43;7.60;;;3.78;;
71800;SDS011;59647;55.838;37.292;2022-07-09T03:00:09;8.68;;;3.40;;
71800;SDS011;59647;55.838;37.292;2022-07-09T03:02:35;8.63;;;4.05;;
71800;SDS011;59647;55.838;37.292;2022-07-09T03:05:01;9.30;;;4.20;;
71800;SDS011;59647;55.838;37.292;2022-07-09T03:07:28;10.48;;;4.43;;
71800;SDS011;59647;55.838;37.292;2022-07-09T03:09:54;12.40;;;4.55;;
71800;SDS011;59647;55.838;37.292;2022-07-09T03:12:21;10.52;;;4.70;;
71800;SDS011;59647;55.838;37.292;2022-07-09T03:14:47;10.48;;;5.47;;
71800;SDS011;59647;55.838;37.292;2022-07-09T03:17:13;11.40;;;4.38;;
71800;SDS011;59647;55.838;37.292;2022-07-09T03:19:39;9.43;;;5.10;;
71800;SDS011;59647;55.838;37.292;2022-07-09T03:22:05;17.20;;;4.93;;
71800;SDS011;59647;55.838;37.292;2022-07-09T03:24:30;13.02;;;5.45;;
71800;SDS011;59647;55.838;37.292;2022-07-09T03:26:56;8.00;;;4.30;;
71800;SDS011;59647;55.838;37.292;2022-07-09T03:29:22;10.27;;;4.45;;
71800;SDS011;59647;55.838;37.292;2022-07-09T03:31:48;9.18;;;4.43;;
71800;SDS011;59647;55.838;37.292;2022-07-09T03:34:14;9.95;;;5.13;;
71800;SDS011;59647;55.838;37.292;2022-07-09T03:36:40;9.00;;;4.80;;
71800;SDS011;59647;55.838;37.292;2022-07-09T03:39:06;8.90;;;4.45;;
71800;SDS011;59647;55.838;37.292;2022-07-09T03:41:32;12.18;;;4.93;;
71800;SDS011;59647;55.838;37.292;2022-07-09T03:43:58;10.50;;;5.00;;
71800;SDS011;59647;55.838;37.292;2022-07-09T03:46:24;19.55;;;5.35;;
71800;SDS011;59647;55.838;37.292;2022-07-09T03:48:50;12.68;;;5.65;;
71800;SDS011;59647;55.838;37.292;2022-07-09T03:51:16;9.57;;;4.97;;
71800;SDS011;59647;55.838;37.292;2022-07-09T03:53:41;14.02;;;6.15;;
71800;SDS011;59647;55.838;37.292;2022-07-09T03:56:07;10.00;;;5.78;;
71800;SDS011;59647;55.838;37.292;2022-07-09T03:58:33;13.60;;;5.38;;
71800;SDS011;59647;55.838;37.292;2022-07-09T04:00:59;15.68;;;6.00;;
71800;SDS011;59647;55.838;37.292;2022-07-09T04:03:25;12.70;;;5.90;;
71800;SDS011;59647;55.838;37.292;2022-07-09T04:05:51;12.73;;;6.40;;
71800;SDS011;59647;55.838;37.292;2022-07-09T04:08:16;10.43;;;5.63;;
71800;SDS011;59647;55.838;37.292;2022-07-09T04:10:42;13.05;;;6.38;;
71800;SDS011;59647;55.838;37.292;2022-07-09T04:13:08;9.07;;;6.22;;
71800;SDS011;59647;55.838;37.292;2022-07-09T04:15:34;14.63;;;6.70;;
71800;SDS011;59647;55.838;37.292;2022-07-09T04:18:00;16.52;;;7.00;;
71800;SDS011;59647;55.838;37.292;2022-07-09T04:20:25;17.30;;;7.05;;
71800;SDS011;59647;55.838;37.292;2022-07-09T04:22:51;21.70;;;6.40;;
71800;SDS011;59647;55.838;37.292;2022-07-09T04:25:18;15.80;;;7.22;;
71800;SDS011;59647;55.838;37.292;2022-07-09T04:27:44;15.95;;;6.20;;
71800;SDS011;59647;55.838;37.292;2022-07-09T04:30:09;12.73;;;7.63;;
71800;SDS011;59647;55.838;37.292;2022-07-09T04:32:36;16.30;;;7.47;;
71800;SDS011;59647;55.838;37.292;2022-07-09T04:35:02;16.25;;;7.63;;
71800;SDS011;59647;55.838;37.292;2022-07-09T04:37:28;12.07;;;7.72;;
71800;SDS011;59647;55.838;37.292;2022-07-09T04:39:54;13.82;;;7.97;;
71800;SDS011;59647;55.838;37.292;2022-07-09T04:42:20;11.88;;;7.45;;
71800;SDS011;59647;55.838;37.292;2022-07-09T04:44:46;13.30;;;7.75;;
71800;SDS011;59647;55.838;37.292;2022-07-09T04:47:12;18.30;;;7.88;;
71800;SDS011;59647;55.838;37.292;2022-07-09T04:49:38;19.45;;;8.75;;
71800;SDS011;59647;55.838;37.292;2022-07-09T04:52:04;16.13;;;7.95;;
71800;SDS011;59647;55.838;37.292;2022-07-09T04:54:31;15.40;;;8.65;;
71800;SDS011;59647;55.838;37.292;2022-07-09T04:56:56;14.25;;;7.82;;
71800;SDS011;59647;55.838;37.292;2022-07-09T04:59:22;18.85;;;8.38;;
71800;SDS011;59647;55.838;37.292;2022-07-09T05:01:49;14.93;;;7.50;;
71800;SDS011;59647;55.838;37.292;2022-07-09T05:04:15;13.60;;;7.70;;
71800;SDS011;59647;55.838;37.292;2022-07-09T05:06:41;12.93;;;7.72;;
71800;SDS011;59647;55.838;37.292;2022-07-09T05:09:07;12.10;;;7.82;;
71800;SDS011;59647;55.838;37.292;2022-07-09T05:11:33;19.95;;;8.23;;
71800;SDS011;59647;55.838;37.292;2022-07-09T05:13:59;16.75;;;8.38;;
71800;SDS011;59647;55.838;37.292;2022-07-09T05:16:25;20.00;;;8.70;;
71800;SDS011;59647;55.838;37.292;2022-07-09T05:18:51;14.07;;;8.02;;
71800;SDS011;59647;55.838;37.292;2022-07-09T05:21:16;16.48;;;7.65;;
71800;SDS011;59647;55.838;37.292;2022-07-09T05:23:42;19.77;;;9.25;;
71800;SDS011;59647;55.838;37.292;2022-07-09T05:26:08;13.13;;;8.65;;
71800;SDS011;59647;55.838;37.292;2022-07-09T05:28:34;17.25;;;8.35;;
71800;SDS011;59647;55.838;37.292;2022-07-09T05:31:00;12.25;;;7.68;;
71800;SDS011;59647;55.838;37.292;2022-07-09T05:33:25;15.00;;;6.93;;
71800;SDS011;59647;55.838;37.292;2022-07-09T05:35:52;10.52;;;5.93;;
71800;SDS011;59647;55.838;37.292;2022-07-09T05:38:18;14.40;;;7.28;;
71800;SDS011;59647;55.838;37.292;2022-07-09T05:40:44;14.80;;;7.07;;
71800;SDS011;59647;55.838;37.292;2022-07-09T05:43:10;21.67;;;7.90;;
71800;SDS011;59647;55.838;37.292;2022-07-09T05:45:35;13.68;;;7.10;;
71800;SDS011;59647;55.838;37.292;2022-07-09T05:48:01;9.85;;;5.78;;
71800;SDS011;59647;55.838;37.292;2022-07-09T05:50:27;11.70;;;6.47;;
71800;SDS011;59647;55.838;37.292;2022-07-09T05:52:53;7.50;;;5.35;;
71800;SDS011;59647;55.838;37.292;2022-07-09T05:55:19;20.27;;;5.10;;
71800;SDS011;59647;55.838;37.292;2022-07-09T05:57:44;13.48;;;4.97;;
71800;SDS011;59647;55.838;37.292;2022-07-09T06:00:11;12.23;;;4.45;;
71800;SDS011;59647;55.838;37.292;2022-07-09T06:02:37;9.18;;;5.05;;
71800;SDS011;59647;55.838;37.292;2022-07-09T06:05:03;10.63;;;5.93;;
71800;SDS011;59647;55.838;37.292;2022-07-09T06:07:29;10.95;;;5.00;;
71800;SDS011;59647;55.838;37.292;2022-07-09T06:09:55;10.95;;;5.35;;
71800;SDS011;59647;55.838;37.292;2022-07-09T06:12:21;10.23;;;3.97;;
71800;SDS011;59647;55.838;37.292;2022-07-09T06:14:47;10.40;;;4.53;;
71800;SDS011;59647;55.838;37.292;2022-07-09T06:17:13;10.55;;;4.72;;
71800;SDS011;59647;55.838;37.292;2022-07-09T06:19:38;10.25;;;4.32;;
71800;SDS011;59647;55.838;37.292;2022-07-09T06:22:04;9.88;;;4.88;;
71800;SDS011;59647;55.838;37.292;2022-07-09T06:24:30;9.35;;;5.18;;
71800;SDS011;59647;55.838;37.292;2022-07-09T06:26:56;18.88;;;10.60;;
71800;SDS011;59647;55.838;37.292;2022-07-09T06:29:22;11.30;;;6.78;;
71800;SDS011;59647;55.838;37.292;2022-07-09T06:31:48;8.30;;;4.68;;
71800;SDS011;59647;55.838;37.292;2022-07-09T06:34:14;13.40;;;5.40;;
71800;SDS011;59647;55.838;37.292;2022-07-09T06:36:40;8.18;;;4.20;;
71800;SDS011;59647;55.838;37.292;2022-07-09T06:39:10;8.95;;;4.18;;
71800;SDS011;59647;55.838;37.292;2022-07-09T06:42:02;10.20;;;3.97;;
71800;SDS011;59647;55.838;37.292;2022-07-09T06:44:29;14.07;;;5.07;;
71800;SDS011;59647;55.838;37.292;2022-07-09T06:46:55;9.38;;;4.00;;
71800;SDS011;59647;55.838;37.292;2022-07-09T06:49:20;10.82;;;5.50;;
71800;SDS011;59647;55.838;37.292;2022-07-09T06:51:46;11.00;;;5.30;;
71800;SDS011;59647;55.838;37.292;2022-07-09T06:54:12;10.35;;;5.28;;
71800;SDS011;59647;55.838;37.292;2022-07-09T06:56:38;9.13;;;4.25;;
71800;SDS011;59647;55.838;37.292;2022-07-09T06:59:03;10.65;;;4.47;;
71800;SDS011;59647;55.838;37.292;2022-07-09T07:01:29;9.88;;;3.90;;
71800;SDS011;59647;55.838;37.292;2022-07-09T07:03:55;11.25;;;4.40;;
71800;SDS011;59647;55.838;37.292;2022-07-09T07:06:21;6.13;;;3.10;;
71800;SDS011;59647;55.838;37.292;2022-07-09T07:08:47;6.22;;;3.17;;
71800;SDS011;59647;55.838;37.292;2022-07-09T07:11:12;6.72;;;4.03;;
71800;SDS011;59647;55.838;37.292;2022-07-09T07:13:38;9.02;;;3.13;;
71800;SDS011;59647;55.838;37.292;2022-07-09T07:16:04;7.75;;;3.40;;
71800;SDS011;59647;55.838;37.292;2022-07-09T07:18:30;6.00;;;3.13;;
71800;SDS011;59647;55.838;37.292;2022-07-09T07:20:56;6.82;;;4.10;;
71800;SDS011;59647;55.838;37.292;2022-07-09T07:23:22;7.93;;;3.08;;
71800;SDS011;59647;55.838;37.292;2022-07-09T07:25:48;5.63;;;2.80;;
71800;SDS011;59647;55.838;37.292;2022-07-09T07:28:13;8.90;;;3.33;;
71800;SDS011;59647;55.838;37.292;2022-07-09T07:30:39;10.57;;;2.65;;
71800;SDS011;59647;55.838;37.292;2022-07-09T07:33:05;7.93;;;3.10;;
71800;SDS011;59647;55.838;37.292;2022-07-09T07:35:31;7.63;;;2.78;;
71800;SDS011;59647;55.838;37.292;2022-07-09T07:37:57;6.03;;;3.22;;
71800;SDS011;59647;55.838;37.292;2022-07-09T07:40:24;4.57;;;2.60;;
71800;SDS011;59647;55.838;37.292;2022-07-09T07:42:50;4.78;;;2.25;;
71800;SDS011;59647;55.838;37.292;2022-07-09T07:45:16;3.83;;;2.25;;
71800;SDS011;59647;55.838;37.292;2022-07-09T07:47:42;4.93;;;2.30;;
71800;SDS011;59647;55.838;37.292;2022-07-09T07:50:08;5.15;;;2.35;;
71800;SDS011;59647;55.838;37.292;2022-07-09T07:52:34;5.28;;;3.35;;
71800;SDS011;59647;55.838;37.292;2022-07-09T07:55:00;8.15;;;3.05;;
71800;SDS011;59647;55.838;37.292;2022-07-09T07:57:26;9.30;;;2.88;;
71800;SDS011;59647;55.838;37.292;2022-07-09T07:59:51;4.75;;;2.35;;
71800;SDS011;59647;55.838;37.292;2022-07-09T08:02:17;5.85;;;2.30;;
71800;SDS011;59647;55.838;37.292;2022-07-09T08:04:43;6.97;;;2.60;;
71800;SDS011;59647;55.838;37.292;2022-07-09T08:07:09;6.82;;;2.50;;
71800;SDS011;59647;55.838;37.292;2022-07-09T08:09:34;8.13;;;2.63;;
71800;SDS011;59647;55.838;37.292;2022-07-09T08:12:00;4.55;;;2.78;;
71800;SDS011;59647;55.838;37.292;2022-07-09T08:14:26;7.20;;;3.60;;
71800;SDS011;59647;55.838;37.292;2022-07-09T08:16:52;6.03;;;3.10;;
71800;SDS011;59647;55.838;37.292;2022-07-09T08:19:18;7.18;;;2.80;;
71800;SDS011;59647;55.838;37.292;2022-07-09T08:21:44;6.30;;;2.72;;
71800;SDS011;59647;55.838;37.292;2022-07-09T08:24:10;3.22;;;2.35;;
71800;SDS011;59647;55.838;37.292;2022-07-09T08:26:36;6.18;;;2.47;;
71800;SDS011;59647;55.838;37.292;2022-07-09T08:29:01;10.00;;;2.88;;
71800;SDS011;59647;55.838;37.292;2022-07-09T08:31:27;5.38;;;3.10;;
71800;SDS011;59647;55.838;37.292;2022-07-09T08:33:53;7.15;;;2.60;;
71800;SDS011;59647;55.838;37.292;2022-07-09T08:36:20;5.78;;;2.70;;
71800;SDS011;59647;55.838;37.292;2022-07-09T08:38:46;5.57;;;2.22;;
71800;SDS011;59647;55.838;37.292;2022-07-09T08:41:12;6.47;;;2.80;;
71800;SDS011;59647;55.838;37.292;2022-07-09T08:43:38;6.00;;;2.58;;
71800;SDS011;59647;55.838;37.292;2022-07-09T08:46:04;3.30;;;2.55;;
71800;SDS011;59647;55.838;37.292;2022-07-09T08:48:35;6.13;;;2.60;;
71800;SDS011;59647;55.838;37.292;2022-07-09T08:51:01;9.05;;;2.72;;
71800;SDS011;59647;55.838;37.292;2022-07-09T08:53:28;7.75;;;2.92;;
71800;SDS011;59647;55.838;37.292;2022-07-09T08:55:55;9.02;;;3.45;;
71800;SDS011;59647;55.838;37.292;2022-07-09T08:58:22;4.55;;;3.38;;
71800;SDS011;59647;55.838;37.292;2022-07-09T09:00:48;5.72;;;3.30;;
71800;SDS011;59647;55.838;37.292;2022-07-09T09:03:18;5.20;;;3.22;;
71800;SDS011;59647;55.838;37.292;2022-07-09T09:05:44;8.82;;;3.75;;
71800;SDS011;59647;55.838;37.292;2022-07-09T09:08:20;12.80;;;4.20;;
71800;SDS011;59647;55.838;37.292;2022-07-09T09:10:49;7.63;;;3.25;;
71800;SDS011;59647;55.838;37.292;2022-07-09T09:13:15;10.15;;;3.47;;
71800;SDS011;59647;55.838;37.292;2022-07-09T09:15:44;5.15;;;3.05;;
71800;SDS011;59647;55.838;37.292;2022-07-09T09:18:10;6.10;;;3.28;;
71800;SDS011;59647;55.838;37.292;2022-07-09T09:20:36;9.63;;;2.95;;
71800;SDS011;59647;55.838;37.292;2022-07-09T09:23:03;11.85;;;3.30;;
71800;SDS011;59647;55.838;37.292;2022-07-09T09:25:35;5.15;;;3.00;;
71800;SDS011;59647;55.838;37.292;2022-07-09T09:28:00;5.65;;;3.08;;
71800;SDS011;59647;55.838;37.292;2022-07-09T09:30:28;6.30;;;2.92;;
71800;SDS011;59647;55.838;37.292;2022-07-09T09:33:04;7.20;;;3.30;;
71800;SDS011;59647;55.838;37.292;2022-07-09T09:35:32;8.13;;;3.35;;
71800;SDS011;59647;55.838;37.292;2022-07-09T09:37:59;7.30;;;3.20;;
71800;SDS011;59647;55.838;37.292;2022-07-09T09:40:25;7.90;;;3.50;;
71800;SDS011;59647;55.838;37.292;2022-07-09T09:42:52;5.78;;;3.28;;
71800;SDS011;59647;55.838;37.292;2022-07-09T09:45:23;5.57;;;3.10;;
71800;SDS011;59647;55.838;37.292;2022-07-09T09:47:50;7.75;;;4.07;;
71800;SDS011;59647;55.838;37.292;2022-07-09T09:50:23;6.05;;;3.45;;
71800;SDS011;59647;55.838;37.292;2022-07-09T09:52:51;4.83;;;3.20;;
71800;SDS011;59647;55.838;37.292;2022-07-09T09:55:18;9.70;;;3.30;;
71800;SDS011;59647;55.838;37.292;2022-07-09T09:57:45;5.25;;;2.78;;
71800;SDS011;59647;55.838;37.292;2022-07-09T10:00:12;6.72;;;3.63;;
71800;SDS011;59647;55.838;37.292;2022-07-09T10:02:47;5.43;;;3.50;;
71800;SDS011;59647;55.838;37.292;2022-07-09T10:05:13;5.05;;;3.40;;
71800;SDS011;59647;55.838;37.292;2022-07-09T10:07:40;5.32;;;2.88;;
71800;SDS011;59647;55.838;37.292;2022-07-09T10:10:07;6.25;;;3.05;;
71800;SDS011;59647;55.838;37.292;2022-07-09T10:12:33;5.22;;;3.05;;
71800;SDS011;59647;55.838;37.292;2022-07-09T10:15:02;5.47;;;2.65;;
71800;SDS011;59647;55.838;37.292;2022-07-09T10:17:48;5.93;;;2.90;;
71800;SDS011;59647;55.838;37.292;2022-07-09T10:20:14;7.00;;;3.70;;
71800;SDS011;59647;55.838;37.292;2022-07-09T10:22:41;6.45;;;3.63;;
71800;SDS011;59647;55.838;37.292;2022-07-09T10:25:12;4.25;;;3.13;;
71800;SDS011;59647;55.838;37.292;2022-07-09T10:27:47;5.32;;;2.90;;
71800;SDS011;59647;55.838;37.292;2022-07-09T10:30:30;4.82;;;3.38;;
71800;SDS011;59647;55.838;37.292;2022-07-09T10:33:01;5.22;;;2.92;;
71800;SDS011;59647;55.838;37.292;2022-07-09T10:35:28;5.32;;;3.38;;
71800;SDS011;59647;55.838;37.292;2022-07-09T10:37:54;5.55;;;3.20;;
71800;SDS011;59647;55.838;37.292;2022-07-09T10:40:20;4.68;;;3.17;;
71800;SDS011;59647;55.838;37.292;2022-07-09T10:42:57;9.70;;;3.10;;
71800;SDS011;59647;55.838;37.292;2022-07-09T10:45:25;6.93;;;3.72;;
71800;SDS011;59647;55.838;37.292;2022-07-09T10:47:54;5.85;;;3.20;;
71800;SDS011;59647;55.838;37.292;2022-07-09T10:50:21;6.25;;;3.20;;
71800;SDS011;59647;55.838;37.292;2022-07-09T10:52:48;8.32;;;4.35;;
71800;SDS011;59647;55.838;37.292;2022-07-09T10:55:16;7.30;;;4.40;;
71800;SDS011;59647;55.838;37.292;2022-07-09T10:57:42;10.20;;;4.43;;
71800;SDS011;59647;55.838;37.292;2022-07-09T11:00:08;8.77;;;3.60;;
71800;SDS011;59647;55.838;37.292;2022-07-09T11:02:38;6.43;;;3.97;;
71800;SDS011;59647;55.838;37.292;2022-07-09T11:05:15;6.75;;;3.83;;
71800;SDS011;59647;55.838;37.292;2022-07-09T11:07:41;6.07;;;3.60;;
71800;SDS011;59647;55.838;37.292;2022-07-09T11:10:06;10.20;;;4.07;;
71800;SDS011;59647;55.838;37.292;2022-07-09T11:12:33;6.57;;;4.00;;
71800;SDS011;59647;55.838;37.292;2022-07-09T11:14:58;6.13;;;3.65;;
71800;SDS011;59647;55.838;37.292;2022-07-09T11:17:24;11.55;;;4.13;;
71800;SDS011;59647;55.838;37.292;2022-07-09T11:19:51;6.15;;;4.55;;
71800;SDS011;59647;55.838;37.292;2022-07-09T11:22:18;7.80;;;3.85;;
71800;SDS011;59647;55.838;37.292;2022-07-09T11:24:44;6.95;;;4.28;;
71800;SDS011;59647;55.838;37.292;2022-07-09T11:27:10;8.98;;;4.30;;
71800;SDS011;59647;55.838;37.292;2022-07-09T11:29:38;31.55;;;6.15;;
71800;SDS011;59647;55.838;37.292;2022-07-09T11:32:04;7.50;;;4.43;;
71800;SDS011;59647;55.838;37.292;2022-07-09T11:34:30;9.25;;;4.53;;
71800;SDS011;59647;55.838;37.292;2022-07-09T11:36:57;13.55;;;4.22;;
71800;SDS011;59647;55.838;37.292;2022-07-09T11:39:28;11.43;;;4.45;;
71800;SDS011;59647;55.838;37.292;2022-07-09T11:41:54;13.13;;;4.47;;
71800;SDS011;59647;55.838;37.292;2022-07-09T11:44:25;9.35;;;5.38;;
71800;SDS011;59647;55.838;37.292;2022-07-09T11:49:36;6.43;;;4.05;;
71800;SDS011;59647;55.838;37.292;2022-07-09T11:52:04;6.47;;;3.42;;
71800;SDS011;59647;55.838;37.292;2022-07-09T11:54:45;6.45;;;3.90;;
71800;SDS011;59647;55.838;37.292;2022-07-09T11:57:29;10.02;;;3.58;;
71800;SDS011;59647;55.838;37.292;2022-07-09T11:59:56;7.13;;;3.97;;
71800;SDS011;59647;55.838;37.292;2022-07-09T12:02:23;7.43;;;3.53;;
71800;SDS011;59647;55.838;37.292;2022-07-09T12:04:49;5.97;;;2.72;;
71800;SDS011;59647;55.838;37.292;2022-07-09T12:07:15;3.67;;;2.30;;
71800;SDS011;59647;55.838;37.292;2022-07-09T12:09:40;4.53;;;2.55;;
71800;SDS011;59647;55.838;37.292;2022-07-09T12:12:06;3.85;;;2.45;;
71800;SDS011;59647;55.838;37.292;2022-07-09T12:14:32;7.40;;;2.60;;
71800;SDS011;59647;55.838;37.292;2022-07-09T12:16:58;4.55;;;2.42;;
71800;SDS011;59647;55.838;37.292;2022-07-09T12:19:24;3.78;;;2.20;;
71800;SDS011;59647;55.838;37.292;2022-07-09T12:21:50;5.53;;;2.10;;
71800;SDS011;59647;55.838;37.292;2022-07-09T12:24:16;3.20;;;1.75;;
71800;SDS011;59647;55.838;37.292;2022-07-09T12:26:41;4.72;;;2.13;;
71800;SDS011;59647;55.838;37.292;2022-07-09T12:29:07;3.33;;;1.88;;
71800;SDS011;59647;55.838;37.292;2022-07-09T12:31:33;5.85;;;2.47;;
71800;SDS011;59647;55.838;37.292;2022-07-09T12:34:03;6.00;;;2.40;;
71800;SDS011;59647;55.838;37.292;2022-07-09T12:36:30;2.65;;;1.83;;
71800;SDS011;59647;55.838;37.292;2022-07-09T12:38:57;3.63;;;1.83;;
71800;SDS011;59647;55.838;37.292;2022-07-09T12:41:23;4.68;;;2.53;;
71800;SDS011;59647;55.838;37.292;2022-07-09T12:43:49;10.10;;;2.08;;
71800;SDS011;59647;55.838;37.292;2022-07-09T12:46:15;5.63;;;2.33;;
71800;SDS011;59647;55.838;37.292;2022-07-09T12:48:41;14.05;;;2.22;;
71800;SDS011;59647;55.838;37.292;2022-07-09T12:51:06;16.25;;;2.97;;
71800;SDS011;59647;55.838;37.292;2022-07-09T12:53:32;5.22;;;2.22;;
71800;SDS011;59647;55.838;37.292;2022-07-09T12:55:58;8.38;;;2.50;;
71800;SDS011;59647;55.838;37.292;2022-07-09T12:58:24;13.57;;;3.22;;
71800;SDS011;59647;55.838;37.292;2022-07-09T13:00:50;6.82;;;2.63;;
71800;SDS011;59647;55.838;37.292;2022-07-09T13:03:15;5.07;;;2.72;;
71800;SDS011;59647;55.838;37.292;2022-07-09T13:05:41;5.85;;;3.00;;
71800;SDS011;59647;55.838;37.292;2022-07-09T13:08:07;5.43;;;3.22;;
71800;SDS011;59647;55.838;37.292;2022-07-09T13:10:33;5.43;;;3.45;;
71800;SDS011;59647;55.838;37.292;2022-07-09T13:12:58;5.25;;;3.08;;
71800;SDS011;59647;55.838;37.292;2022-07-09T13:15:24;6.60;;;2.83;;
71800;SDS011;59647;55.838;37.292;2022-07-09T13:17:50;5.22;;;2.05;;
71800;SDS011;59647;55.838;37.292;2022-07-09T13:20:16;4.32;;;2.42;;
71800;SDS011;59647;55.838;37.292;2022-07-09T13:22:42;5.78;;;2.60;;
71800;SDS011;59647;55.838;37.292;2022-07-09T13:25:08;5.95;;;3.17;;
71800;SDS011;59647;55.838;37.292;2022-07-09T13:27:35;4.50;;;2.42;;
71800;SDS011;59647;55.838;37.292;2022-07-09T13:30:01;5.88;;;2.70;;
71800;SDS011;59647;55.838;37.292;2022-07-09T13:32:29;5.85;;;2.67;;
71800;SDS011;59647;55.838;37.292;2022-07-09T13:34:54;7.05;;;2.70;;
71800;SDS011;59647;55.838;37.292;2022-07-09T13:37:20;4.85;;;2.72;;
71800;SDS011;59647;55.838;37.292;2022-07-09T13:39:47;6.95;;;2.72;;
71800;SDS011;59647;55.838;37.292;2022-07-09T13:42:13;9.13;;;2.83;;
71800;SDS011;59647;55.838;37.292;2022-07-09T13:44:38;7.28;;;3.00;;
71800;SDS011;59647;55.838;37.292;2022-07-09T13:47:04;4.75;;;3.10;;
71800;SDS011;59647;55.838;37.292;2022-07-09T13:49:30;4.32;;;2.97;;
71800;SDS011;59647;55.838;37.292;2022-07-09T13:51:56;4.32;;;3.40;;
71800;SDS011;59647;55.838;37.292;2022-07-09T13:54:22;6.75;;;3.72;;
71800;SDS011;59647;55.838;37.292;2022-07-09T13:56:48;11.45;;;4.28;;
71800;SDS011;59647;55.838;37.292;2022-07-09T13:59:14;6.78;;;3.03;;
71800;SDS011;59647;55.838;37.292;2022-07-09T14:01:40;13.25;;;4.00;;
71800;SDS011;59647;55.838;37.292;2022-07-09T14:04:06;7.70;;;3.75;;
71800;SDS011;59647;55.838;37.292;2022-07-09T14:06:32;4.70;;;3.13;;
71800;SDS011;59647;55.838;37.292;2022-07-09T14:08:57;7.85;;;3.80;;
71800;SDS011;59647;55.838;37.292;2022-07-09T14:11:23;5.45;;;3.97;;
71800;SDS011;59647;55.838;37.292;2022-07-09T14:13:49;5.97;;;3.60;;
71800;SDS011;59647;55.838;37.292;2022-07-09T14:16:17;9.38;;;3.80;;
71800;SDS011;59647;55.838;37.292;2022-07-09T14:18:43;6.18;;;3.42;;
71800;SDS011;59647;55.838;37.292;2022-07-09T14:21:09;9.23;;;3.47;;
71800;SDS011;59647;55.838;37.292;2022-07-09T14:23:35;5.07;;;2.92;;
71800;SDS011;59647;55.838;37.292;2022-07-09T14:26:01;11.25;;;3.83;;
71800;SDS011;59647;55.838;37.292;2022-07-09T14:28:27;6.13;;;3.00;;
71800;SDS011;59647;55.838;37.292;2022-07-09T14:30:52;8.00;;;3.20;;